createdAt,value
2023-07-25T00:00:54.518Z,26.00
2023-07-25T00:04:15.707Z,26.00
2023-07-25T00:07:36.793Z,26.00
2023-07-25T00:10:58.233Z,26.00
2023-07-25T00:14:21.208Z,26.10
2023-07-25T00:17:42.388Z,26.00
2023-07-25T00:21:05.012Z,26.00
2023-07-25T00:24:26.288Z,25.80
2023-07-25T00:27:47.476Z,25.60
2023-07-25T00:31:10.325Z,25.60
2023-07-25T00:34:31.658Z,25.60
2023-07-25T00:37:52.797Z,25.70
2023-07-25T00:41:13.957Z,25.80
2023-07-25T00:44:35.049Z,25.80
2023-07-25T00:47:57.821Z,25.80
2023-07-25T00:51:19.230Z,25.80
2023-07-25T00:54:41.297Z,25.80
2023-07-25T00:58:02.856Z,25.70
2023-07-25T01:01:24.284Z,25.70
2023-07-25T01:04:46.994Z,25.80
2023-07-25T01:08:08.969Z,25.70
2023-07-25T01:11:30.257Z,25.70
2023-07-25T01:14:51.895Z,25.60
2023-07-25T01:18:18.362Z,25.70
2023-07-25T01:21:42.276Z,25.70
2023-07-25T01:25:05.277Z,25.70
2023-07-25T01:28:27.213Z,25.60
2023-07-25T01:31:48.516Z,25.40
2023-07-25T01:35:10.067Z,25.40
2023-07-25T01:38:31.390Z,25.20
2023-07-25T01:41:54.004Z,25.20
2023-07-25T01:45:15.224Z,25.00
2023-07-25T01:48:36.570Z,25.10
2023-07-25T01:51:57.724Z,25.10
2023-07-25T01:55:18.981Z,25.10
2023-07-25T01:58:41.685Z,25.00
2023-07-25T02:02:02.849Z,24.90
2023-07-25T02:05:24.028Z,24.90
2023-07-25T02:08:45.313Z,25.00
2023-07-25T02:12:07.078Z,24.90
2023-07-25T02:15:29.632Z,24.90
2023-07-25T02:18:50.800Z,24.80
2023-07-25T02:22:11.878Z,24.70
2023-07-25T02:25:33.164Z,24.70
2023-07-25T02:28:54.322Z,24.70
2023-07-25T02:32:16.964Z,24.70
2023-07-25T02:35:38.144Z,24.60
2023-07-25T02:38:59.416Z,24.50
2023-07-25T02:42:20.741Z,24.40
2023-07-25T02:45:41.948Z,24.40
2023-07-25T02:49:04.502Z,24.40
2023-07-25T02:52:25.702Z,24.40
2023-07-25T02:55:46.984Z,24.40
2023-07-25T02:59:08.244Z,24.40
2023-07-25T03:02:29.457Z,24.50
2023-07-25T03:05:52.257Z,24.30
2023-07-25T03:09:13.462Z,24.20
2023-07-25T03:12:34.702Z,24.20
2023-07-25T03:15:55.986Z,24.00
2023-07-25T03:19:17.162Z,24.00
2023-07-25T03:22:39.772Z,24.00
2023-07-25T03:26:01.715Z,24.00
2023-07-25T03:29:23.000Z,23.90
2023-07-25T03:32:44.109Z,23.70
2023-07-25T03:36:06.207Z,23.80
2023-07-25T03:39:29.067Z,23.90
2023-07-25T03:42:50.258Z,23.80
2023-07-25T03:46:12.069Z,23.80
2023-07-25T03:49:34.158Z,23.90
2023-07-25T03:52:55.402Z,24.00
2023-07-25T03:56:17.932Z,24.20
2023-07-25T03:59:39.247Z,24.40
2023-07-25T04:03:13.636Z,24.70
2023-07-25T04:06:36.892Z,24.70
2023-07-25T04:09:58.399Z,24.80
2023-07-25T04:13:21.147Z,25.10
2023-07-25T04:16:42.372Z,25.30
2023-07-25T04:20:03.997Z,25.40
2023-07-25T04:23:27.237Z,25.60
2023-07-25T04:26:48.450Z,26.00
2023-07-25T04:30:11.805Z,26.30
2023-07-25T04:33:33.032Z,26.40
2023-07-25T04:36:54.271Z,26.80
2023-07-25T04:40:16.016Z,26.90
2023-07-25T04:43:37.393Z,27.10
2023-07-25T04:46:59.937Z,27.40
2023-07-25T04:50:21.312Z,27.70
2023-07-25T04:53:42.759Z,28.00
2023-07-25T04:57:04.436Z,28.30
2023-07-25T05:00:25.506Z,28.60
2023-07-25T05:03:48.214Z,28.80
2023-07-25T05:07:09.530Z,28.90
2023-07-25T05:10:32.542Z,29.50
2023-07-25T05:13:54.029Z,30.30
2023-07-25T05:17:15.158Z,30.20
2023-07-25T05:20:37.765Z,30.00
2023-07-25T05:23:59.200Z,29.50
2023-07-25T05:27:20.449Z,28.80
2023-07-25T05:30:41.743Z,28.10
2023-07-25T05:34:03.188Z,27.60
2023-07-25T05:37:35.156Z,27.40
2023-07-25T05:40:58.114Z,27.20
2023-07-25T05:44:19.360Z,27.20
2023-07-25T05:47:40.995Z,27.00
2023-07-25T05:51:03.589Z,27.00
2023-07-25T05:54:26.484Z,27.00
2023-07-25T05:57:47.819Z,27.10
2023-07-25T06:01:09.541Z,27.30
2023-07-25T06:04:31.006Z,27.50
2023-07-25T06:07:54.569Z,27.90
2023-07-25T06:11:22.353Z,28.00
2023-07-25T06:14:43.574Z,28.30
2023-07-25T06:18:05.232Z,28.40
2023-07-25T06:21:26.693Z,28.40
2023-07-25T06:24:49.107Z,28.10
2023-07-25T06:28:12.309Z,27.70
2023-07-25T06:31:34.006Z,27.70
2023-07-25T06:34:55.429Z,27.40
2023-07-25T06:38:16.790Z,27.10
2023-07-25T06:41:38.135Z,27.00
2023-07-25T06:45:00.820Z,26.80
2023-07-25T06:48:21.991Z,26.50
2023-07-25T06:51:43.364Z,26.40
2023-07-25T06:55:04.869Z,26.30
2023-07-25T06:58:26.075Z,26.20
2023-07-25T07:01:48.798Z,26.10
2023-07-25T07:05:23.863Z,25.90
2023-07-25T07:08:50.353Z,25.60
2023-07-25T07:12:12.042Z,25.50
2023-07-25T07:15:33.394Z,25.30
2023-07-25T07:18:56.001Z,25.20
2023-07-25T07:22:17.366Z,25.10
2023-07-25T07:25:39.740Z,25.00
2023-07-25T07:29:01.114Z,24.80
2023-07-25T07:32:22.293Z,24.50
2023-07-25T07:35:44.915Z,24.30
2023-07-25T07:39:06.912Z,24.10
2023-07-25T07:43:09.030Z,24.00
2023-07-25T07:46:30.704Z,24.00
2023-07-25T07:50:10.945Z,23.90
2023-07-25T07:53:33.723Z,23.80
2023-07-25T07:57:22.461Z,23.70
2023-07-25T08:00:54.933Z,23.70
2023-07-25T08:04:16.600Z,23.60
2023-07-25T08:07:38.140Z,23.50
2023-07-25T08:11:01.557Z,23.40
2023-07-25T08:14:23.068Z,23.30
2023-07-25T08:17:44.948Z,23.20
2023-07-25T08:21:06.849Z,23.10
2023-07-25T08:24:28.192Z,23.00
2023-07-25T08:27:50.882Z,23.10
2023-07-25T08:31:14.372Z,22.90
2023-07-25T08:34:35.502Z,22.90
2023-07-25T08:37:56.562Z,22.80
2023-07-25T08:41:19.214Z,22.70
2023-07-25T08:44:45.123Z,22.60
2023-07-25T08:48:13.594Z,22.70
2023-07-25T08:51:39.532Z,22.70
2023-07-25T08:55:06.459Z,22.70
2023-07-25T08:58:28.527Z,22.60
2023-07-25T09:01:51.831Z,22.60
2023-07-25T09:05:14.553Z,22.50
2023-07-25T09:08:35.643Z,22.40
2023-07-25T09:11:58.722Z,22.40
2023-07-25T09:15:20.316Z,22.40
2023-07-25T09:18:45.509Z,22.40
2023-07-25T09:22:07.005Z,22.40
2023-07-25T09:25:31.906Z,22.50
2023-07-25T09:28:55.034Z,22.50
2023-07-25T09:32:24.627Z,22.40
2023-07-25T09:35:55.116Z,21.80
2023-07-25T09:39:16.466Z,21.30
2023-07-25T09:42:41.257Z,21.20
2023-07-25T09:46:04.138Z,21.00
2023-07-25T09:49:27.750Z,20.90
2023-07-25T09:52:54.547Z,20.70
2023-07-25T09:56:15.763Z,21.40
2023-07-25T09:59:37.156Z,21.80
2023-07-25T10:02:59.480Z,22.30
2023-07-25T10:06:21.166Z,22.50
2023-07-25T10:09:46.783Z,22.90
2023-07-25T10:13:07.904Z,23.00
2023-07-25T10:16:30.479Z,23.00
2023-07-25T10:19:54.281Z,23.30
2023-07-25T10:23:32.560Z,23.60
2023-07-25T10:27:10.228Z,23.50
2023-07-25T10:30:34.468Z,23.50
2023-07-25T10:33:59.786Z,23.70
2023-07-25T10:37:21.588Z,23.80
2023-07-25T10:40:57.072Z,23.90
2023-07-25T10:44:37.370Z,23.70
2023-07-25T10:48:38.525Z,23.50
2023-07-25T10:52:03.709Z,23.50
2023-07-25T10:55:24.834Z,23.60
2023-07-25T10:59:05.572Z,23.40
2023-07-25T11:02:29.990Z,23.40
2023-07-25T11:06:34.804Z,23.40
2023-07-25T11:09:56.278Z,23.40
2023-07-25T11:13:18.800Z,23.50
2023-07-25T11:16:42.675Z,23.50
2023-07-25T11:20:12.576Z,23.60
2023-07-25T11:23:35.173Z,23.60
2023-07-25T11:26:57.769Z,23.70
2023-07-25T11:30:19.826Z,23.60
2023-07-25T11:33:43.504Z,23.70
2023-07-25T11:37:10.113Z,23.70
2023-07-25T11:40:32.915Z,23.80
2023-07-25T11:43:55.118Z,23.60
2023-07-25T11:47:16.667Z,23.60
2023-07-25T11:50:39.725Z,23.40
2023-07-25T11:54:01.893Z,23.30
2023-07-25T11:57:23.252Z,23.20
2023-07-25T12:00:49.887Z,23.20
2023-07-25T12:04:15.242Z,23.20
2023-07-25T12:07:50.913Z,23.30
2023-07-25T12:11:21.017Z,23.20
2023-07-25T12:14:54.538Z,23.10
2023-07-25T12:18:15.958Z,22.80
2023-07-25T12:21:38.012Z,22.70
2023-07-25T12:25:06.875Z,22.60
2023-07-25T12:28:40.273Z,22.60
2023-07-25T12:32:01.502Z,22.20
2023-07-25T12:35:22.723Z,22.20
2023-07-25T12:38:46.666Z,22.20
2023-07-25T12:42:10.394Z,22.10
2023-07-25T12:45:31.730Z,21.90
2023-07-25T12:48:53.134Z,21.90
2023-07-25T12:52:14.580Z,21.90
2023-07-25T12:55:37.312Z,21.80
2023-07-25T12:59:01.499Z,21.80
2023-07-25T13:02:22.923Z,21.80
2023-07-25T13:05:44.189Z,21.80
2023-07-25T13:09:05.566Z,21.70
2023-07-25T13:12:27.041Z,21.90
2023-07-25T13:15:49.773Z,22.10
2023-07-25T13:19:13.622Z,22.20
2023-07-25T13:22:34.889Z,22.20
2023-07-25T13:25:56.278Z,22.20
2023-07-25T13:29:17.773Z,22.30
2023-07-25T13:32:41.211Z,22.40
2023-07-25T13:36:03.609Z,22.50
2023-07-25T13:39:24.840Z,22.70
2023-07-25T13:42:45.999Z,22.80
2023-07-25T13:46:08.178Z,22.90
2023-07-25T13:49:30.932Z,22.90
2023-07-25T13:52:54.261Z,23.10
2023-07-25T13:56:16.032Z,23.10
2023-07-25T13:59:38.135Z,23.20
2023-07-25T14:02:59.850Z,23.40
2023-07-25T14:06:22.374Z,23.50
2023-07-25T14:09:43.691Z,23.50
2023-07-25T14:13:05.727Z,23.80
2023-07-25T14:16:27.189Z,24.00
2023-07-25T14:19:48.469Z,23.80
2023-07-25T14:23:11.063Z,23.90
2023-07-25T14:26:35.498Z,24.10
2023-07-25T14:29:57.957Z,24.10
2023-07-25T14:33:22.122Z,24.20
2023-07-25T14:36:43.458Z,24.40
2023-07-25T14:40:07.508Z,24.00
2023-07-25T14:43:28.866Z,24.10
2023-07-25T14:46:50.114Z,24.00
2023-07-25T14:50:11.783Z,24.00
2023-07-25T14:53:33.357Z,24.20
2023-07-25T14:56:56.036Z,24.10
2023-07-25T15:00:17.666Z,24.00
2023-07-25T15:03:39.142Z,24.10
2023-07-25T15:07:00.461Z,24.00
2023-07-25T15:10:21.661Z,24.00
2023-07-25T15:13:44.328Z,23.90
2023-07-25T15:17:06.512Z,23.90
2023-07-25T15:20:27.933Z,24.00
2023-07-25T15:23:49.118Z,23.80
2023-07-25T15:27:10.295Z,23.80
2023-07-25T15:30:33.829Z,23.70
2023-07-25T15:33:55.081Z,23.60
2023-07-25T15:37:16.418Z,23.50
2023-07-25T15:40:38.062Z,23.80
2023-07-25T15:44:00.278Z,23.90
2023-07-25T15:47:22.790Z,23.80
2023-07-25T15:50:43.948Z,23.60
2023-07-25T15:54:05.287Z,23.60
2023-07-25T15:57:26.537Z,23.50
2023-07-25T16:00:47.685Z,23.60
2023-07-25T16:04:11.454Z,23.50
2023-07-25T16:07:35.521Z,23.50
2023-07-25T16:10:57.293Z,23.40
2023-07-25T16:14:18.657Z,23.50
2023-07-25T16:17:39.889Z,23.60
2023-07-25T16:21:03.672Z,23.70
2023-07-25T16:24:24.820Z,23.60
2023-07-25T16:27:46.072Z,23.60
2023-07-25T16:31:29.124Z,23.60
2023-07-25T16:34:48.669Z,23.60
2023-07-25T16:38:11.220Z,23.50
2023-07-25T16:41:32.738Z,23.40
2023-07-25T16:44:55.714Z,23.60
2023-07-25T16:48:16.909Z,23.60
2023-07-25T16:51:38.083Z,23.70
2023-07-25T16:55:00.948Z,23.80
2023-07-25T16:58:22.276Z,23.70
2023-07-25T17:01:43.709Z,23.80
2023-07-25T17:05:05.136Z,23.80
2023-07-25T17:08:26.464Z,23.80
2023-07-25T17:11:49.210Z,23.80
2023-07-25T17:15:10.718Z,24.00
2023-07-25T17:18:31.917Z,23.90
2023-07-25T17:21:53.183Z,23.80
2023-07-25T17:25:14.367Z,23.80
2023-07-25T17:28:37.239Z,23.80
2023-07-25T17:31:58.548Z,23.70
2023-07-25T17:35:31.618Z,23.70
2023-07-25T17:38:58.328Z,23.70
2023-07-25T17:42:19.597Z,23.70
2023-07-25T17:45:42.479Z,23.70
2023-07-25T17:49:04.757Z,23.70
2023-07-25T17:52:25.948Z,23.70
2023-07-25T17:55:49.266Z,23.60
2023-07-25T17:59:10.843Z,23.50
2023-07-25T18:02:33.369Z,23.30
2023-07-25T18:05:54.592Z,23.20
2023-07-25T18:09:15.868Z,23.00
2023-07-25T18:12:36.970Z,22.90
2023-07-25T18:15:59.126Z,23.10
2023-07-25T18:19:21.698Z,23.30
2023-07-25T18:22:42.836Z,23.70
2023-07-25T18:26:07.278Z,24.00
2023-07-25T18:29:28.560Z,24.20
2023-07-25T18:32:49.797Z,24.10
2023-07-25T18:36:12.571Z,23.70
2023-07-25T18:39:33.765Z,23.10
2023-07-25T18:42:55.395Z,23.10
2023-07-25T18:46:16.695Z,23.20
2023-07-25T18:49:38.092Z,23.60
2023-07-25T18:53:01.436Z,23.80
2023-07-25T18:56:22.655Z,24.00
2023-07-25T18:59:43.822Z,23.90
2023-07-25T19:03:05.129Z,23.70
2023-07-25T19:06:26.475Z,23.10
2023-07-25T19:09:49.448Z,22.90
2023-07-25T19:13:10.875Z,22.80
2023-07-25T19:16:32.661Z,22.60
2023-07-25T19:19:54.398Z,22.50
2023-07-25T19:23:25.855Z,22.50
2023-07-25T19:26:53.655Z,22.50
2023-07-25T19:30:15.166Z,22.50
2023-07-25T19:33:36.552Z,22.80
2023-07-25T19:36:57.953Z,23.20
2023-07-25T19:40:19.143Z,23.50
2023-07-25T19:43:41.601Z,23.20
2023-07-25T19:47:05.365Z,22.90
2023-07-25T19:50:28.316Z,22.60
2023-07-25T19:53:52.122Z,22.50
2023-07-25T19:57:13.609Z,22.50
2023-07-25T20:00:37.608Z,22.40
2023-07-25T20:03:59.077Z,22.30
2023-07-25T20:07:20.686Z,22.20
2023-07-25T20:10:41.874Z,22.20
2023-07-25T20:14:03.887Z,22.10
2023-07-25T20:17:26.626Z,22.10
2023-07-25T20:20:55.964Z,22.10
2023-07-25T20:24:17.293Z,22.20
2023-07-25T20:27:38.578Z,22.20
2023-07-25T20:31:01.260Z,22.30
2023-07-25T20:34:23.959Z,22.20
2023-07-25T20:37:45.310Z,22.20
2023-07-25T20:41:07.652Z,22.20
2023-07-25T20:44:29.041Z,22.20
2023-07-25T20:47:50.336Z,22.10
2023-07-25T20:51:12.965Z,22.20
2023-07-25T20:54:34.263Z,22.20
2023-07-25T20:57:55.922Z,22.20
2023-07-25T21:01:17.564Z,22.30
2023-07-25T21:04:38.798Z,22.20
2023-07-25T21:08:02.989Z,22.10
2023-07-25T21:11:24.510Z,22.10
2023-07-25T21:14:45.594Z,22.10
2023-07-25T21:18:13.785Z,21.90
2023-07-25T21:21:35.586Z,21.90
2023-07-25T21:24:58.818Z,21.80
2023-07-25T21:28:20.329Z,21.70
2023-07-25T21:31:41.508Z,21.80
2023-07-25T21:35:02.696Z,21.90
2023-07-25T21:38:24.056Z,21.80
2023-07-25T21:41:58.983Z,21.80
2023-07-25T21:45:20.279Z,21.80
2023-07-25T21:48:41.774Z,21.70
2023-07-25T21:52:03.124Z,21.70
2023-07-25T21:55:24.485Z,21.70
2023-07-25T21:58:47.738Z,21.70
2023-07-25T22:02:10.096Z,21.70
2023-07-25T22:05:31.333Z,21.70
2023-07-25T22:08:52.510Z,21.70
2023-07-25T22:12:13.846Z,21.80
2023-07-25T22:15:36.393Z,21.80
2023-07-25T22:18:57.959Z,21.70
2023-07-25T22:22:19.327Z,21.70
2023-07-25T22:25:40.436Z,21.80
2023-07-25T22:29:01.791Z,21.80
2023-07-25T22:32:25.196Z,21.70
2023-07-25T22:35:46.684Z,21.70
2023-07-25T22:39:07.896Z,21.80
2023-07-25T22:42:29.066Z,21.70
2023-07-25T22:45:50.277Z,21.70
2023-07-25T22:49:12.837Z,21.80
2023-07-25T22:52:34.100Z,21.80
2023-07-25T22:55:55.379Z,21.70
2023-07-25T22:59:16.990Z,21.80
2023-07-25T23:02:38.500Z,21.70
2023-07-25T23:06:02.667Z,21.70
2023-07-25T23:09:24.001Z,21.70
2023-07-25T23:12:45.155Z,21.70
2023-07-25T23:16:06.695Z,21.60
2023-07-25T23:19:27.964Z,21.70
2023-07-25T23:22:50.570Z,21.70
2023-07-25T23:26:11.737Z,21.70
2023-07-25T23:29:32.980Z,21.70
2023-07-25T23:32:54.141Z,21.70
2023-07-25T23:36:15.830Z,21.80
2023-07-25T23:39:38.840Z,21.70
2023-07-25T23:43:00.728Z,21.60
2023-07-25T23:46:21.828Z,21.50
2023-07-25T23:49:43.121Z,21.60
2023-07-25T23:53:04.271Z,21.60
2023-07-25T23:56:29.579Z,21.50
2023-07-25T23:59:50.909Z,21.50
